createdAt,value
2023-01-27T02:26:43.040Z,78.31
2023-01-27T02:29:14.798Z,76.14
2023-01-27T02:31:43.751Z,76.08
2023-01-27T02:34:17.427Z,75.84
2023-01-27T02:36:49.559Z,75.50
2023-01-27T02:39:19.752Z,75.39
2023-01-27T02:41:50.335Z,74.96
2023-01-27T02:44:19.101Z,75.07
2023-01-27T02:46:47.892Z,74.80
2023-01-27T02:49:16.285Z,74.56
2023-01-27T02:51:45.779Z,74.26
2023-01-27T02:54:14.159Z,73.98
2023-01-27T02:56:42.957Z,73.48
2023-01-27T02:59:13.480Z,73.29
2023-01-27T03:01:43.021Z,73.43
2023-01-27T03:04:12.291Z,73.59
2023-01-27T03:06:44.152Z,73.43
2023-01-27T03:09:12.745Z,73.31
2023-01-27T03:11:59.863Z,73.19
2023-01-27T03:14:48.000Z,73.11
2023-01-27T03:17:35.836Z,73.00
2023-01-27T03:20:05.159Z,73.45
2023-01-27T03:22:33.822Z,73.13
2023-01-27T03:25:03.435Z,72.97
2023-01-27T03:27:32.119Z,72.86
2023-01-27T03:30:23.442Z,72.97
2023-01-27T03:33:03.697Z,72.77
2023-01-27T03:35:49.794Z,72.89
2023-01-27T03:38:39.998Z,72.73
2023-01-27T03:41:27.311Z,72.81
2023-01-27T03:44:14.637Z,72.78
2023-01-27T03:46:43.224Z,72.94
2023-01-27T03:49:11.608Z,72.96
2023-01-27T03:51:39.985Z,73.03
2023-01-27T03:54:10.008Z,73.15
2023-01-27T03:56:39.620Z,73.41
2023-01-27T03:59:07.995Z,73.24
2023-01-27T04:01:36.446Z,73.28
2023-01-27T04:04:23.904Z,73.05
2023-01-27T04:06:52.291Z,73.36
2023-01-27T04:09:20.974Z,73.28
2023-01-27T04:11:55.316Z,73.16
2023-01-27T04:14:30.738Z,72.93
2023-01-27T04:17:04.447Z,72.75
2023-01-27T04:19:33.530Z,72.67
2023-01-27T04:22:02.069Z,72.76
2023-01-27T04:24:34.299Z,72.55
2023-01-27T04:27:05.138Z,72.54
2023-01-27T04:29:35.141Z,72.60
2023-01-27T04:32:08.552Z,72.17
2023-01-27T04:34:37.147Z,72.38
2023-01-27T04:37:07.165Z,72.31
2023-01-27T04:39:35.748Z,72.38
2023-01-27T04:42:04.199Z,72.49
2023-01-27T04:44:33.423Z,72.65
2023-01-27T04:47:01.808Z,72.91
2023-01-27T04:49:31.106Z,72.99
2023-01-27T04:51:59.486Z,72.91
2023-01-27T04:54:27.875Z,73.19
2023-01-27T04:56:58.857Z,73.32
2023-01-27T04:59:27.425Z,73.32
2023-01-27T05:01:55.961Z,73.40
2023-01-27T05:04:27.396Z,73.39
2023-01-27T05:06:56.422Z,73.10
2023-01-27T05:09:25.316Z,73.48
2023-01-27T05:11:54.107Z,73.79
2023-01-27T05:14:23.866Z,73.73
2023-01-27T05:16:52.562Z,73.90
2023-01-27T05:19:20.991Z,74.24
2023-01-27T05:21:49.778Z,74.18
2023-01-27T05:24:18.202Z,73.93
2023-01-27T05:26:47.071Z,73.94
2023-01-27T05:29:16.047Z,73.74
2023-01-27T05:31:45.207Z,73.49
2023-01-27T05:34:13.936Z,73.56
2023-01-27T05:36:42.416Z,73.56
2023-01-27T05:39:11.515Z,73.57
2023-01-27T05:41:39.997Z,73.47
2023-01-27T10:23:41.681Z,75.83
2023-01-27T10:26:41.864Z,74.35
2023-01-27T10:29:12.394Z,73.62
2023-01-27T10:31:49.036Z,72.49
2023-01-27T10:34:23.592Z,72.45
2023-01-27T10:37:04.671Z,72.62
2023-01-27T10:39:53.123Z,72.05
2023-01-27T10:42:41.572Z,71.85
2023-01-27T10:45:28.077Z,71.44
2023-01-27T10:48:28.102Z,71.01
2023-01-27T10:51:02.525Z,70.07
2023-01-27T10:53:46.467Z,69.19
2023-01-27T10:56:19.658Z,69.18
2023-01-27T10:58:57.257Z,69.28
2023-01-27T11:01:32.133Z,69.50
2023-01-27T11:04:16.656Z,69.75
2023-01-27T11:06:45.232Z,69.75
2023-01-27T11:09:40.137Z,69.14
2023-01-27T11:12:12.939Z,69.54
2023-01-27T11:14:46.118Z,69.29
2023-01-27T11:17:51.779Z,68.98
2023-01-27T11:20:20.156Z,68.78
2023-01-27T11:22:59.595Z,68.51
2023-01-27T11:25:30.135Z,68.44
2023-01-27T11:28:06.191Z,68.20
2023-01-27T11:30:48.842Z,68.67
2023-01-27T11:33:25.886Z,68.59
2023-01-27T11:35:54.268Z,68.50
2023-01-27T11:38:25.616Z,68.72
2023-01-27T11:40:54.406Z,68.90
2023-01-27T11:43:24.663Z,68.83
2023-01-27T11:45:58.275Z,69.26
2023-01-27T11:48:27.225Z,69.44
2023-01-27T11:50:55.707Z,69.47
2023-01-27T11:53:27.770Z,69.40
2023-01-27T11:56:00.761Z,69.33
2023-01-27T11:58:49.948Z,69.63
2023-01-27T12:01:20.968Z,69.50
2023-01-27T12:04:07.613Z,69.30
2023-01-27T12:06:41.482Z,69.70
2023-01-27T12:09:38.849Z,69.64
2023-01-27T12:12:16.443Z,69.61
2023-01-27T12:14:49.321Z,69.40
2023-01-27T12:17:41.157Z,68.87
2023-01-27T12:20:22.137Z,68.75
2023-01-27T12:22:53.585Z,68.96
2023-01-27T12:25:28.208Z,68.78
2023-01-27T12:28:03.076Z,69.26
2023-01-27T12:30:35.414Z,69.26
2023-01-27T12:33:13.617Z,69.45
2023-01-27T12:35:42.406Z,69.49
2023-01-27T12:38:17.263Z,69.82
2023-01-27T12:40:47.463Z,68.57
2023-01-27T12:43:17.683Z,67.34
2023-01-27T12:45:46.063Z,66.93
2023-01-27T12:48:18.213Z,67.09
2023-01-27T12:50:55.519Z,67.31
2023-01-27T12:53:28.308Z,67.60
2023-01-27T12:56:11.458Z,67.31
2023-01-27T12:58:55.067Z,67.57
2023-01-27T13:01:30.520Z,67.29
2023-01-27T13:04:05.309Z,67.01
2023-01-27T13:06:43.764Z,67.08
2023-01-27T13:09:27.806Z,67.34
2023-01-27T13:11:57.723Z,67.05
2023-01-27T13:14:29.484Z,67.12
2023-01-27T13:17:01.451Z,67.23
2023-01-27T13:19:37.092Z,67.42
2023-01-27T13:22:05.683Z,67.32
2023-01-27T13:24:42.140Z,67.07
2023-01-27T13:27:18.161Z,67.15
2023-01-27T13:29:58.171Z,67.38
2023-01-27T13:32:28.389Z,67.59
2023-01-27T13:35:17.690Z,67.44
2023-01-27T13:38:03.450Z,67.54
2023-01-27T13:40:41.459Z,67.59
2023-01-27T13:43:32.986Z,67.47
2023-01-27T13:46:22.018Z,67.52
2023-01-27T19:58:46.804Z,85.52
2023-01-27T20:01:14.133Z,84.72
2023-01-27T20:03:41.564Z,84.32
2023-01-27T20:06:21.932Z,83.83
2023-01-27T20:08:56.156Z,83.32
2023-01-27T20:11:26.265Z,82.67
2023-01-27T20:13:53.316Z,82.23
2023-01-27T20:16:20.590Z,81.99
2023-01-27T20:18:47.922Z,81.26
2023-01-27T20:21:15.173Z,80.38
2023-01-27T20:23:42.224Z,79.28
2023-01-27T20:26:13.219Z,78.93
2023-01-27T20:28:40.211Z,78.67
2023-01-27T20:31:11.623Z,78.21
2023-01-27T20:33:38.817Z,78.03
2023-01-27T20:36:07.630Z,78.07
2023-01-27T20:38:34.731Z,78.12
2023-01-27T20:41:07.803Z,77.79
2023-01-27T20:43:35.663Z,77.52
2023-01-27T20:46:04.957Z,77.08
2023-01-27T20:48:32.890Z,76.59
2023-01-27T20:51:00.854Z,76.56
2023-01-27T20:53:31.183Z,76.98
2023-01-27T20:56:01.098Z,76.74
2023-01-27T20:58:27.944Z,76.70
2023-01-27T21:01:15.551Z,76.73
2023-01-27T21:03:42.729Z,76.88
2023-01-27T21:06:11.034Z,77.08
2023-01-27T21:08:38.169Z,76.94
2023-01-27T21:11:10.941Z,76.86
2023-01-27T21:13:38.200Z,76.90
2023-01-27T21:16:05.782Z,76.62
2023-01-27T21:18:33.220Z,76.19
2023-01-27T21:21:03.548Z,76.04
2023-01-27T21:23:32.153Z,75.73
2023-01-27T21:26:04.127Z,75.75
2023-01-27T21:28:33.063Z,75.78
2023-01-27T21:31:07.151Z,75.56
2023-01-27T21:33:35.724Z,75.30
2023-01-27T21:36:03.970Z,75.05
2023-01-27T21:38:32.413Z,74.53
2023-01-27T21:41:11.713Z,74.37
2023-01-27T21:43:57.161Z,74.51
2023-01-27T21:46:24.126Z,74.55
2023-01-27T21:48:51.297Z,74.70
2023-01-27T21:51:19.040Z,74.73
2023-01-27T21:53:46.192Z,74.75
2023-01-27T21:56:13.140Z,75.12
2023-01-27T21:58:40.511Z,75.04
2023-01-27T22:01:08.940Z,75.41
2023-01-27T22:03:36.334Z,75.34
